Alakanuk, AK (99554)

10:17 AM AKDT on October 02, 2014 (GMT -0800)
Emmonak | Change Station
CLOSE
Current Station
Airport
Location: Emmonak,
Elevation: 13 ft
Nearby Weather Stations

Elev 13 ft 62.79 °N, 164.49 °W | Updated 21 minutes ago

Overcast
Overcast
43 °F
Feels Like 38 °F
N
8
Wind Variable Wind from NNE

Today
High -- | Low -- °F
--% Chance of Precip.
Yesterday
High -- | Low -- °F
Precip. -- in
9:09 AM 8:24 PM
First Quarter, 61% visible
Pressure 30.09 in
Visibility 10.0 miles
Clouds Scattered Clouds 3100 ft
Mostly Cloudy 4000 ft
Overcast 6000 ft
Windchill 38 °F
Dew Point 37 °F
Humidity 81%
Rainfall 0.00 in
Snow Depth 3 in , 77 in , 3 in
UV 0 out of 12
Pollen Not available.
Air Quality Not available.
Flu Activity Not available.
METAR PAEM 021756Z 02007KT 10SM SCT031 BKN040 OVC060 06/03 A3009 RMK AO1 10060 20050 57007

More Conditions Fewer Conditions

Pressure 30.09 in
Visibility 10.0 miles
Clouds Scattered Clouds 3100 ft
Mostly Cloudy 4000 ft
Overcast 6000 ft
Windchill 38 °F
Dew Point 37 °F
Humidity 81%
Rainfall 0.00 in
Snow Depth 3 in , 77 in , 3 in
UV 0 out of 12
Pollen Not available.
Air Quality Not available.
Flu Activity Not available.
METAR PAEM 021756Z 02007KT 10SM SCT031 BKN040 OVC060 06/03 A3009 RMK AO1 10060 20050 57007

More Conditions Fewer Conditions

10-Day Weather Forecast

Almanac

Astronomy

Oct. 02, 2014 Rise Set
Actual Time 9:09 AM AKDT 8:24 PM AKDT
Civil Twilight 8:24 AM AKDT 9:09 PM AKDT
Nautical Twilight 7:30 AM AKDT 10:02 PM AKDT
Astronomical Twilight 6:34 AM AKDT 10:58 PM AKDT
Moon 6:15 PM AKDT 12:53 AM AKDT
Length of Visible Light 12h 45m
Length of Day
11h 14m
Tomorrow will be 6m 3s shorter.
First Quarter, 61% of the Moon is Illuminated
Today
First Quarter
Oct 8
Full
Oct 15
Last Quarter
Oct 23
New
Oct 30
First Quarter

Today's Extremes

State Highs State Lows

Community

WunderPhotos

Upload Photos

1,758,316 photos uploaded!

WunderBlogs® & News

Nearby

Snow Depth

Station Depth Elevation
Rocky Point 3 in 500 ft
Eagle Summit 77 in 3650 ft
Coldfoot 3 in 1040 ft
Gobblers Knob 3 in 2030 ft
Upper Chena 7 in 2850 ft

Earthquake Activity

City Distance Mag. Time & Date
No recent earthquake activity has been reported nearby.
Minimum magnitude displayed is 2.5.

Coastal Water Temperatures

Place Temperature
No Stations Reporting

Nearby Weather Stations